sensor_id;sensor_type;location;lat;lon;timestamp;temperature;humidity
5358;DHT22;2702;51.014;7.170;2022-10-16T00:00:39;14.60;99.90
5358;DHT22;2702;51.014;7.170;2022-10-16T00:03:05;14.60;99.90
5358;DHT22;2702;51.014;7.170;2022-10-16T00:05:31;14.60;99.90
5358;DHT22;2702;51.014;7.170;2022-10-16T00:07:57;14.60;99.90
5358;DHT22;2702;51.014;7.170;2022-10-16T00:10:23;14.60;99.90
5358;DHT22;2702;51.014;7.170;2022-10-16T00:12:49;14.70;99.90
5358;DHT22;2702;51.014;7.170;2022-10-16T00:15:15;14.70;99.90
5358;DHT22;2702;51.014;7.170;2022-10-16T00:17:41;14.60;99.90
5358;DHT22;2702;51.014;7.170;2022-10-16T00:20:07;14.60;99.90
5358;DHT22;2702;51.014;7.170;2022-10-16T00:22:33;14.60;99.90
5358;DHT22;2702;51.014;7.170;2022-10-16T00:24:59;14.60;99.90
5358;DHT22;2702;51.014;7.170;2022-10-16T00:27:25;14.60;99.90
5358;DHT22;2702;51.014;7.170;2022-10-16T00:29:52;14.60;99.90
5358;DHT22;2702;51.014;7.170;2022-10-16T00:32:19;14.60;99.90
5358;DHT22;2702;51.014;7.170;2022-10-16T00:34:45;14.70;99.90
5358;DHT22;2702;51.014;7.170;2022-10-16T00:37:12;14.70;99.90
5358;DHT22;2702;51.014;7.170;2022-10-16T00:39:38;14.70;99.90
5358;DHT22;2702;51.014;7.170;2022-10-16T00:42:04;14.60;99.90
5358;DHT22;2702;51.014;7.170;2022-10-16T00:49:50;14.40;99.90
5358;DHT22;2702;51.014;7.170;2022-10-16T00:52:17;14.40;99.90
5358;DHT22;2702;51.014;7.170;2022-10-16T00:54:46;14.40;99.90
5358;DHT22;2702;51.014;7.170;2022-10-16T00:57:12;14.30;99.90
5358;DHT22;2702;51.014;7.170;2022-10-16T00:59:40;14.40;99.90
5358;DHT22;2702;51.014;7.170;2022-10-16T01:02:09;14.30;99.90
5358;DHT22;2702;51.014;7.170;2022-10-16T01:04:49;14.30;99.90
5358;DHT22;2702;51.014;7.170;2022-10-16T01:20:26;14.30;99.90
5358;DHT22;2702;51.014;7.170;2022-10-16T01:23:02;14.20;99.90
5358;DHT22;2702;51.014;7.170;2022-10-16T01:28:21;14.20;99.90
5358;DHT22;2702;51.014;7.170;2022-10-16T01:30:52;14.10;99.90
5358;DHT22;2702;51.014;7.170;2022-10-16T01:33:27;14.10;99.90
5358;DHT22;2702;51.014;7.170;2022-10-16T01:35:59;14.10;99.90
5358;DHT22;2702;51.014;7.170;2022-10-16T01:38:36;14.10;99.90
5358;DHT22;2702;51.014;7.170;2022-10-16T01:41:30;14.10;99.90
5358;DHT22;2702;51.014;7.170;2022-10-16T01:44:12;14.20;99.90
5358;DHT22;2702;51.014;7.170;2022-10-16T01:46:44;14.20;99.90
5358;DHT22;2702;51.014;7.170;2022-10-16T01:49:12;14.10;99.90
5358;DHT22;2702;51.014;7.170;2022-10-16T01:51:39;14.10;99.90
5358;DHT22;2702;51.014;7.170;2022-10-16T01:54:08;14.10;99.90
5358;DHT22;2702;51.014;7.170;2022-10-16T01:56:36;14.10;99.90
5358;DHT22;2702;51.014;7.170;2022-10-16T01:59:07;14.10;99.90
5358;DHT22;2702;51.014;7.170;2022-10-16T02:01:37;14.10;99.90
5358;DHT22;2702;51.014;7.170;2022-10-16T02:04:12;14.10;99.90
5358;DHT22;2702;51.014;7.170;2022-10-16T02:06:40;14.00;99.90
5358;DHT22;2702;51.014;7.170;2022-10-16T02:09:06;14.10;99.90
5358;DHT22;2702;51.014;7.170;2022-10-16T02:11:32;14.00;99.90
5358;DHT22;2702;51.014;7.170;2022-10-16T02:14:06;13.90;99.90
5358;DHT22;2702;51.014;7.170;2022-10-16T02:16:39;14.00;99.90
5358;DHT22;2702;51.014;7.170;2022-10-16T02:19:06;14.00;99.90
5358;DHT22;2702;51.014;7.170;2022-10-16T02:21:54;14.00;99.90
5358;DHT22;2702;51.014;7.170;2022-10-16T02:29:39;14.00;99.90
5358;DHT22;2702;51.014;7.170;2022-10-16T02:32:07;14.00;99.90
5358;DHT22;2702;51.014;7.170;2022-10-16T02:34:36;14.00;99.90
5358;DHT22;2702;51.014;7.170;2022-10-16T02:37:04;14.00;99.90
5358;DHT22;2702;51.014;7.170;2022-10-16T02:39:31;13.90;99.90
5358;DHT22;2702;51.014;7.170;2022-10-16T02:41:57;13.90;99.90
5358;DHT22;2702;51.014;7.170;2022-10-16T02:44:22;14.00;99.90
5358;DHT22;2702;51.014;7.170;2022-10-16T02:46:48;14.00;99.90
5358;DHT22;2702;51.014;7.170;2022-10-16T02:49:14;14.00;99.90
5358;DHT22;2702;51.014;7.170;2022-10-16T02:51:40;13.90;99.90
5358;DHT22;2702;51.014;7.170;2022-10-16T02:54:06;14.00;99.90
5358;DHT22;2702;51.014;7.170;2022-10-16T02:56:32;14.00;99.90
5358;DHT22;2702;51.014;7.170;2022-10-16T02:58:58;13.90;99.90
5358;DHT22;2702;51.014;7.170;2022-10-16T03:01:24;14.00;99.90
5358;DHT22;2702;51.014;7.170;2022-10-16T03:03:50;13.90;99.90
5358;DHT22;2702;51.014;7.170;2022-10-16T03:06:16;14.00;99.90
5358;DHT22;2702;51.014;7.170;2022-10-16T03:08:42;13.90;99.90
5358;DHT22;2702;51.014;7.170;2022-10-16T03:11:08;14.00;99.90
5358;DHT22;2702;51.014;7.170;2022-10-16T03:13:33;14.10;99.90
5358;DHT22;2702;51.014;7.170;2022-10-16T03:15:59;14.00;99.90
5358;DHT22;2702;51.014;7.170;2022-10-16T03:18:25;14.10;99.90
5358;DHT22;2702;51.014;7.170;2022-10-16T03:20:51;14.10;99.90
5358;DHT22;2702;51.014;7.170;2022-10-16T03:23:17;14.10;99.90
5358;DHT22;2702;51.014;7.170;2022-10-16T03:25:43;14.00;99.90
5358;DHT22;2702;51.014;7.170;2022-10-16T03:28:08;13.90;99.90
5358;DHT22;2702;51.014;7.170;2022-10-16T03:30:34;13.90;99.90
5358;DHT22;2702;51.014;7.170;2022-10-16T03:33:00;13.90;99.90
5358;DHT22;2702;51.014;7.170;2022-10-16T03:35:26;13.90;99.90
5358;DHT22;2702;51.014;7.170;2022-10-16T03:37:52;13.90;99.90
5358;DHT22;2702;51.014;7.170;2022-10-16T03:40:18;13.90;99.90
5358;DHT22;2702;51.014;7.170;2022-10-16T03:42:44;13.80;99.90
5358;DHT22;2702;51.014;7.170;2022-10-16T03:45:11;13.80;99.90
5358;DHT22;2702;51.014;7.170;2022-10-16T03:47:37;13.80;99.90
5358;DHT22;2702;51.014;7.170;2022-10-16T03:50:04;13.80;99.90
5358;DHT22;2702;51.014;7.170;2022-10-16T03:52:30;13.80;99.90
5358;DHT22;2702;51.014;7.170;2022-10-16T03:54:57;13.70;99.90
5358;DHT22;2702;51.014;7.170;2022-10-16T03:57:23;13.70;99.90
5358;DHT22;2702;51.014;7.170;2022-10-16T03:59:49;13.60;99.90
5358;DHT22;2702;51.014;7.170;2022-10-16T04:02:15;13.60;99.90
5358;DHT22;2702;51.014;7.170;2022-10-16T04:04:41;13.70;99.90
5358;DHT22;2702;51.014;7.170;2022-10-16T04:07:06;13.60;99.90
5358;DHT22;2702;51.014;7.170;2022-10-16T04:09:32;13.70;99.90
5358;DHT22;2702;51.014;7.170;2022-10-16T04:11:58;13.80;99.90
5358;DHT22;2702;51.014;7.170;2022-10-16T04:14:24;13.70;99.90
5358;DHT22;2702;51.014;7.170;2022-10-16T04:16:50;13.80;99.90
5358;DHT22;2702;51.014;7.170;2022-10-16T04:19:15;13.70;99.90
5358;DHT22;2702;51.014;7.170;2022-10-16T04:21:41;13.70;99.90
5358;DHT22;2702;51.014;7.170;2022-10-16T04:24:07;13.70;99.90
5358;DHT22;2702;51.014;7.170;2022-10-16T04:26:33;13.80;99.90
5358;DHT22;2702;51.014;7.170;2022-10-16T04:28:59;13.80;99.90
5358;DHT22;2702;51.014;7.170;2022-10-16T04:31:25;13.70;99.90
5358;DHT22;2702;51.014;7.170;2022-10-16T04:33:50;13.70;99.90
5358;DHT22;2702;51.014;7.170;2022-10-16T04:36:16;13.80;99.90
5358;DHT22;2702;51.014;7.170;2022-10-16T04:38:42;13.80;99.90
5358;DHT22;2702;51.014;7.170;2022-10-16T04:41:08;13.80;99.90
5358;DHT22;2702;51.014;7.170;2022-10-16T04:43:34;13.80;99.90
5358;DHT22;2702;51.014;7.170;2022-10-16T04:46:00;13.80;99.90
5358;DHT22;2702;51.014;7.170;2022-10-16T04:48:27;13.70;99.90
5358;DHT22;2702;51.014;7.170;2022-10-16T04:50:53;13.80;99.90
5358;DHT22;2702;51.014;7.170;2022-10-16T04:53:19;13.80;99.90
5358;DHT22;2702;51.014;7.170;2022-10-16T04:55:45;13.70;99.90
5358;DHT22;2702;51.014;7.170;2022-10-16T04:58:11;13.70;99.90
5358;DHT22;2702;51.014;7.170;2022-10-16T05:00:37;13.70;99.90
5358;DHT22;2702;51.014;7.170;2022-10-16T05:03:04;13.70;99.90
5358;DHT22;2702;51.014;7.170;2022-10-16T05:05:33;13.70;99.90
5358;DHT22;2702;51.014;7.170;2022-10-16T05:07:59;13.70;99.90
5358;DHT22;2702;51.014;7.170;2022-10-16T05:10:25;13.70;99.90
5358;DHT22;2702;51.014;7.170;2022-10-16T05:12:51;13.70;99.90
5358;DHT22;2702;51.014;7.170;2022-10-16T05:15:17;13.60;99.90
5358;DHT22;2702;51.014;7.170;2022-10-16T05:17:44;13.70;99.90
5358;DHT22;2702;51.014;7.170;2022-10-16T05:20:10;13.70;99.90
5358;DHT22;2702;51.014;7.170;2022-10-16T05:22:36;13.70;99.90
5358;DHT22;2702;51.014;7.170;2022-10-16T05:25:02;13.70;99.90
5358;DHT22;2702;51.014;7.170;2022-10-16T05:27:28;13.60;99.90
5358;DHT22;2702;51.014;7.170;2022-10-16T05:29:54;13.60;99.90
5358;DHT22;2702;51.014;7.170;2022-10-16T05:32:19;13.70;99.90
5358;DHT22;2702;51.014;7.170;2022-10-16T05:34:45;13.70;99.90
5358;DHT22;2702;51.014;7.170;2022-10-16T05:37:12;13.70;99.90
5358;DHT22;2702;51.014;7.170;2022-10-16T05:39:38;13.70;99.90
5358;DHT22;2702;51.014;7.170;2022-10-16T05:42:05;13.70;99.90
5358;DHT22;2702;51.014;7.170;2022-10-16T05:44:31;13.70;99.90
5358;DHT22;2702;51.014;7.170;2022-10-16T05:46:57;13.70;99.90
5358;DHT22;2702;51.014;7.170;2022-10-16T05:49:23;13.70;99.90
5358;DHT22;2702;51.014;7.170;2022-10-16T05:51:49;13.70;99.90
5358;DHT22;2702;51.014;7.170;2022-10-16T05:54:15;13.70;99.90
5358;DHT22;2702;51.014;7.170;2022-10-16T05:56:41;13.80;99.90
5358;DHT22;2702;51.014;7.170;2022-10-16T05:59:07;13.80;99.90
5358;DHT22;2702;51.014;7.170;2022-10-16T06:01:33;13.80;99.90
5358;DHT22;2702;51.014;7.170;2022-10-16T06:03:59;13.80;99.90
5358;DHT22;2702;51.014;7.170;2022-10-16T06:06:26;13.90;99.90
5358;DHT22;2702;51.014;7.170;2022-10-16T06:08:54;13.90;99.90
5358;DHT22;2702;51.014;7.170;2022-10-16T06:11:23;13.80;99.90
5358;DHT22;2702;51.014;7.170;2022-10-16T06:13:50;13.90;99.90
5358;DHT22;2702;51.014;7.170;2022-10-16T06:16:17;13.80;99.90
5358;DHT22;2702;51.014;7.170;2022-10-16T06:18:42;13.80;99.90
5358;DHT22;2702;51.014;7.170;2022-10-16T06:21:14;13.80;99.90
5358;DHT22;2702;51.014;7.170;2022-10-16T06:23:41;13.80;99.90
5358;DHT22;2702;51.014;7.170;2022-10-16T06:26:09;13.80;99.90
5358;DHT22;2702;51.014;7.170;2022-10-16T06:28:36;13.80;99.90
5358;DHT22;2702;51.014;7.170;2022-10-16T06:31:04;13.80;99.90
5358;DHT22;2702;51.014;7.170;2022-10-16T06:33:30;13.80;99.90
5358;DHT22;2702;51.014;7.170;2022-10-16T06:36:25;13.80;99.90
5358;DHT22;2702;51.014;7.170;2022-10-16T06:38:52;13.80;99.90
5358;DHT22;2702;51.014;7.170;2022-10-16T06:41:20;13.80;99.90
5358;DHT22;2702;51.014;7.170;2022-10-16T06:43:47;13.90;99.90
5358;DHT22;2702;51.014;7.170;2022-10-16T06:46:15;14.00;99.90
5358;DHT22;2702;51.014;7.170;2022-10-16T06:48:42;14.00;99.90
5358;DHT22;2702;51.014;7.170;2022-10-16T06:51:12;14.10;99.90
5358;DHT22;2702;51.014;7.170;2022-10-16T06:53:41;14.10;99.90
5358;DHT22;2702;51.014;7.170;2022-10-16T06:56:13;14.20;99.90
5358;DHT22;2702;51.014;7.170;2022-10-16T06:58:40;14.30;99.90
5358;DHT22;2702;51.014;7.170;2022-10-16T07:01:07;14.30;99.90
5358;DHT22;2702;51.014;7.170;2022-10-16T07:03:39;14.40;99.90
5358;DHT22;2702;51.014;7.170;2022-10-16T07:06:07;14.50;99.90
5358;DHT22;2702;51.014;7.170;2022-10-16T07:08:35;14.50;99.90
5358;DHT22;2702;51.014;7.170;2022-10-16T07:11:03;14.60;99.90
5358;DHT22;2702;51.014;7.170;2022-10-16T07:13:32;14.60;99.90
5358;DHT22;2702;51.014;7.170;2022-10-16T07:15:58;14.60;99.90
5358;DHT22;2702;51.014;7.170;2022-10-16T07:18:29;14.70;99.90
5358;DHT22;2702;51.014;7.170;2022-10-16T07:21:03;14.70;99.90
5358;DHT22;2702;51.014;7.170;2022-10-16T07:23:29;14.70;99.90
5358;DHT22;2702;51.014;7.170;2022-10-16T07:25:55;14.80;99.90
5358;DHT22;2702;51.014;7.170;2022-10-16T07:28:21;14.90;99.90
5358;DHT22;2702;51.014;7.170;2022-10-16T07:30:47;15.00;99.90
5358;DHT22;2702;51.014;7.170;2022-10-16T07:33:13;15.00;99.90
5358;DHT22;2702;51.014;7.170;2022-10-16T07:35:51;15.10;99.90
5358;DHT22;2702;51.014;7.170;2022-10-16T07:38:17;15.20;99.90
5358;DHT22;2702;51.014;7.170;2022-10-16T07:40:44;15.20;99.90
5358;DHT22;2702;51.014;7.170;2022-10-16T07:43:09;15.20;99.90
5358;DHT22;2702;51.014;7.170;2022-10-16T07:45:35;15.20;99.90
5358;DHT22;2702;51.014;7.170;2022-10-16T07:48:01;15.20;99.90
5358;DHT22;2702;51.014;7.170;2022-10-16T07:50:27;15.20;99.90
5358;DHT22;2702;51.014;7.170;2022-10-16T07:52:53;15.30;99.90
5358;DHT22;2702;51.014;7.170;2022-10-16T07:55:18;15.40;99.90
5358;DHT22;2702;51.014;7.170;2022-10-16T07:57:44;15.30;99.90
5358;DHT22;2702;51.014;7.170;2022-10-16T08:00:11;15.30;99.90
5358;DHT22;2702;51.014;7.170;2022-10-16T08:02:39;15.30;99.90
5358;DHT22;2702;51.014;7.170;2022-10-16T08:05:06;15.40;99.90
5358;DHT22;2702;51.014;7.170;2022-10-16T08:07:33;15.40;99.90
5358;DHT22;2702;51.014;7.170;2022-10-16T08:09:58;15.40;99.90
5358;DHT22;2702;51.014;7.170;2022-10-16T08:12:27;15.50;99.90
5358;DHT22;2702;51.014;7.170;2022-10-16T08:14:53;15.50;99.90
5358;DHT22;2702;51.014;7.170;2022-10-16T08:17:19;15.60;99.90
5358;DHT22;2702;51.014;7.170;2022-10-16T08:19:46;15.60;99.90
5358;DHT22;2702;51.014;7.170;2022-10-16T08:22:13;15.70;99.90
5358;DHT22;2702;51.014;7.170;2022-10-16T08:24:40;15.70;99.90
5358;DHT22;2702;51.014;7.170;2022-10-16T08:27:06;15.70;99.90
5358;DHT22;2702;51.014;7.170;2022-10-16T08:29:32;15.80;99.90
5358;DHT22;2702;51.014;7.170;2022-10-16T08:31:58;15.90;99.90
5358;DHT22;2702;51.014;7.170;2022-10-16T08:34:24;16.00;99.90
5358;DHT22;2702;51.014;7.170;2022-10-16T08:36:53;16.10;99.90
5358;DHT22;2702;51.014;7.170;2022-10-16T08:39:20;16.20;99.90
5358;DHT22;2702;51.014;7.170;2022-10-16T08:41:54;16.30;99.90
5358;DHT22;2702;51.014;7.170;2022-10-16T08:44:39;16.40;99.90
5358;DHT22;2702;51.014;7.170;2022-10-16T08:47:18;16.50;99.90
5358;DHT22;2702;51.014;7.170;2022-10-16T08:52:20;16.50;99.90
5358;DHT22;2702;51.014;7.170;2022-10-16T08:54:49;16.60;99.90
5358;DHT22;2702;51.014;7.170;2022-10-16T08:57:22;16.70;99.90
5358;DHT22;2702;51.014;7.170;2022-10-16T08:59:48;16.70;99.90
5358;DHT22;2702;51.014;7.170;2022-10-16T09:02:29;16.70;99.90
5358;DHT22;2702;51.014;7.170;2022-10-16T09:07:36;16.80;99.90
5358;DHT22;2702;51.014;7.170;2022-10-16T09:10:17;16.90;99.90
5358;DHT22;2702;51.014;7.170;2022-10-16T09:13:16;16.90;99.90
5358;DHT22;2702;51.014;7.170;2022-10-16T09:18:41;17.00;99.90
5358;DHT22;2702;51.014;7.170;2022-10-16T09:21:25;17.20;99.90
5358;DHT22;2702;51.014;7.170;2022-10-16T09:23:51;17.30;99.90
5358;DHT22;2702;51.014;7.170;2022-10-16T09:26:18;17.20;99.90
5358;DHT22;2702;51.014;7.170;2022-10-16T09:28:45;17.30;99.90
5358;DHT22;2702;51.014;7.170;2022-10-16T09:31:16;17.30;99.90
5358;DHT22;2702;51.014;7.170;2022-10-16T09:33:45;17.40;99.90
5358;DHT22;2702;51.014;7.170;2022-10-16T09:36:13;17.30;99.90
5358;DHT22;2702;51.014;7.170;2022-10-16T09:38:39;17.40;99.90
5358;DHT22;2702;51.014;7.170;2022-10-16T09:41:22;17.50;99.90
5358;DHT22;2702;51.014;7.170;2022-10-16T09:43:59;17.60;99.90
5358;DHT22;2702;51.014;7.170;2022-10-16T09:46:26;17.80;99.90
5358;DHT22;2702;51.014;7.170;2022-10-16T09:49:02;17.80;99.90
5358;DHT22;2702;51.014;7.170;2022-10-16T09:51:31;17.90;99.90
5358;DHT22;2702;51.014;7.170;2022-10-16T09:54:00;17.80;99.90
5358;DHT22;2702;51.014;7.170;2022-10-16T09:56:29;17.80;99.90
5358;DHT22;2702;51.014;7.170;2022-10-16T09:58:58;17.80;99.90
5358;DHT22;2702;51.014;7.170;2022-10-16T10:01:38;17.90;99.90
5358;DHT22;2702;51.014;7.170;2022-10-16T10:04:06;18.10;99.90
5358;DHT22;2702;51.014;7.170;2022-10-16T10:06:35;18.00;99.90
5358;DHT22;2702;51.014;7.170;2022-10-16T10:12:28;18.00;99.90
5358;DHT22;2702;51.014;7.170;2022-10-16T10:14:58;18.10;99.90
5358;DHT22;2702;51.014;7.170;2022-10-16T10:17:29;18.20;99.90
5358;DHT22;2702;51.014;7.170;2022-10-16T10:19:58;18.40;99.90
5358;DHT22;2702;51.014;7.170;2022-10-16T10:22:39;18.50;99.90
5358;DHT22;2702;51.014;7.170;2022-10-16T10:39:00;19.00;99.90
5358;DHT22;2702;51.014;7.170;2022-10-16T10:44:24;19.10;99.90
5358;DHT22;2702;51.014;7.170;2022-10-16T10:52:34;18.80;99.90
5358;DHT22;2702;51.014;7.170;2022-10-16T11:01:14;18.90;99.90
5358;DHT22;2702;51.014;7.170;2022-10-16T11:06:46;18.90;99.90
5358;DHT22;2702;51.014;7.170;2022-10-16T11:09:24;19.00;99.90
5358;DHT22;2702;51.014;7.170;2022-10-16T11:12:01;18.90;99.90
5358;DHT22;2702;51.014;7.170;2022-10-16T11:22:07;19.10;99.90
5358;DHT22;2702;51.014;7.170;2022-10-16T11:24:45;19.10;99.90
5358;DHT22;2702;51.014;7.170;2022-10-16T11:27:17;19.20;99.90
5358;DHT22;2702;51.014;7.170;2022-10-16T11:29:59;19.20;99.90
5358;DHT22;2702;51.014;7.170;2022-10-16T11:32:40;19.20;99.90
5358;DHT22;2702;51.014;7.170;2022-10-16T11:38:08;19.10;99.90
5358;DHT22;2702;51.014;7.170;2022-10-16T11:40:38;19.00;99.90
5358;DHT22;2702;51.014;7.170;2022-10-16T11:43:37;19.00;99.90
5358;DHT22;2702;51.014;7.170;2022-10-16T11:46:12;19.20;99.90
5358;DHT22;2702;51.014;7.170;2022-10-16T11:48:54;19.20;99.90
5358;DHT22;2702;51.014;7.170;2022-10-16T11:51:33;19.40;99.90
5358;DHT22;2702;51.014;7.170;2022-10-16T11:54:32;19.60;99.90
5358;DHT22;2702;51.014;7.170;2022-10-16T11:57:11;19.80;99.90
5358;DHT22;2702;51.014;7.170;2022-10-16T12:00:05;19.90;99.90
5358;DHT22;2702;51.014;7.170;2022-10-16T12:02:58;19.90;99.90
5358;DHT22;2702;51.014;7.170;2022-10-16T12:08:12;19.50;99.90
5358;DHT22;2702;51.014;7.170;2022-10-16T12:10:41;19.20;99.90
5358;DHT22;2702;51.014;7.170;2022-10-16T12:16:21;19.40;99.90
5358;DHT22;2702;51.014;7.170;2022-10-16T12:18:48;19.50;99.90
5358;DHT22;2702;51.014;7.170;2022-10-16T12:21:16;19.70;99.90
5358;DHT22;2702;51.014;7.170;2022-10-16T12:23:55;19.90;99.90
5358;DHT22;2702;51.014;7.170;2022-10-16T12:26:30;20.10;99.90
5358;DHT22;2702;51.014;7.170;2022-10-16T12:31:54;20.50;99.90
5358;DHT22;2702;51.014;7.170;2022-10-16T12:34:43;20.50;99.90
5358;DHT22;2702;51.014;7.170;2022-10-16T12:37:25;20.60;99.90
5358;DHT22;2702;51.014;7.170;2022-10-16T12:39:53;20.60;99.90
5358;DHT22;2702;51.014;7.170;2022-10-16T12:42:21;20.60;99.90
5358;DHT22;2702;51.014;7.170;2022-10-16T12:44:48;20.60;99.90
5358;DHT22;2702;51.014;7.170;2022-10-16T12:47:37;20.60;99.90
5358;DHT22;2702;51.014;7.170;2022-10-16T12:50:22;20.60;99.90
5358;DHT22;2702;51.014;7.170;2022-10-16T12:52:48;20.70;99.90
5358;DHT22;2702;51.014;7.170;2022-10-16T12:55:19;20.70;99.90
5358;DHT22;2702;51.014;7.170;2022-10-16T13:01:22;20.90;99.90
5358;DHT22;2702;51.014;7.170;2022-10-16T13:18:29;20.70;99.90
5358;DHT22;2702;51.014;7.170;2022-10-16T13:21:30;20.60;99.90
5358;DHT22;2702;51.014;7.170;2022-10-16T13:29:45;20.60;99.90
5358;DHT22;2702;51.014;7.170;2022-10-16T13:32:17;20.60;99.90
5358;DHT22;2702;51.014;7.170;2022-10-16T13:34:47;20.60;99.90
5358;DHT22;2702;51.014;7.170;2022-10-16T13:37:32;20.70;99.90
5358;DHT22;2702;51.014;7.170;2022-10-16T13:40:21;20.70;99.90
5358;DHT22;2702;51.014;7.170;2022-10-16T13:42:47;20.60;99.90
5358;DHT22;2702;51.014;7.170;2022-10-16T13:45:24;20.60;99.90
5358;DHT22;2702;51.014;7.170;2022-10-16T13:48:05;20.60;99.90
5358;DHT22;2702;51.014;7.170;2022-10-16T13:50:32;20.60;99.90
5358;DHT22;2702;51.014;7.170;2022-10-16T13:53:05;20.60;99.90
5358;DHT22;2702;51.014;7.170;2022-10-16T13:55:32;20.40;99.90
5358;DHT22;2702;51.014;7.170;2022-10-16T13:58:14;20.30;99.90
5358;DHT22;2702;51.014;7.170;2022-10-16T14:01:05;20.10;99.90
5358;DHT22;2702;51.014;7.170;2022-10-16T14:03:30;20.10;99.90
5358;DHT22;2702;51.014;7.170;2022-10-16T14:06:00;20.10;99.90
5358;DHT22;2702;51.014;7.170;2022-10-16T14:08:29;20.10;99.90
5358;DHT22;2702;51.014;7.170;2022-10-16T14:11:00;20.30;99.90
5358;DHT22;2702;51.014;7.170;2022-10-16T14:13:44;20.40;99.90
5358;DHT22;2702;51.014;7.170;2022-10-16T14:16:17;20.40;99.90
5358;DHT22;2702;51.014;7.170;2022-10-16T14:18:50;20.40;99.90
5358;DHT22;2702;51.014;7.170;2022-10-16T14:21:18;20.20;99.90
5358;DHT22;2702;51.014;7.170;2022-10-16T14:23:44;20.10;99.90
5358;DHT22;2702;51.014;7.170;2022-10-16T14:28:37;20.10;99.90
5358;DHT22;2702;51.014;7.170;2022-10-16T14:31:30;20.00;99.90
5358;DHT22;2702;51.014;7.170;2022-10-16T14:33:56;20.10;99.90
5358;DHT22;2702;51.014;7.170;2022-10-16T14:36:23;20.10;99.90
5358;DHT22;2702;51.014;7.170;2022-10-16T14:39:02;20.00;99.90
5358;DHT22;2702;51.014;7.170;2022-10-16T14:41:31;19.90;99.90
5358;DHT22;2702;51.014;7.170;2022-10-16T14:44:04;20.00;99.90
5358;DHT22;2702;51.014;7.170;2022-10-16T14:46:36;19.80;99.90
5358;DHT22;2702;51.014;7.170;2022-10-16T14:51:35;19.90;99.90
5358;DHT22;2702;51.014;7.170;2022-10-16T14:54:01;19.90;99.90
5358;DHT22;2702;51.014;7.170;2022-10-16T14:57:12;19.80;99.90
5358;DHT22;2702;51.014;7.170;2022-10-16T15:01:54;19.80;99.90
5358;DHT22;2702;51.014;7.170;2022-10-16T15:04:20;19.80;99.90
5358;DHT22;2702;51.014;7.170;2022-10-16T15:06:46;19.80;99.90
5358;DHT22;2702;51.014;7.170;2022-10-16T15:09:12;19.80;99.90
5358;DHT22;2702;51.014;7.170;2022-10-16T15:11:38;19.70;99.90
5358;DHT22;2702;51.014;7.170;2022-10-16T15:14:04;19.70;99.90
5358;DHT22;2702;51.014;7.170;2022-10-16T15:16:31;19.60;99.90
5358;DHT22;2702;51.014;7.170;2022-10-16T15:18:57;19.60;99.90
5358;DHT22;2702;51.014;7.170;2022-10-16T15:21:31;19.50;99.90
5358;DHT22;2702;51.014;7.170;2022-10-16T15:23:59;19.60;99.90
5358;DHT22;2702;51.014;7.170;2022-10-16T15:26:27;19.60;99.90
5358;DHT22;2702;51.014;7.170;2022-10-16T15:28:54;19.40;99.90
5358;DHT22;2702;51.014;7.170;2022-10-16T15:31:20;19.50;99.90
5358;DHT22;2702;51.014;7.170;2022-10-16T15:33:50;19.50;99.90
5358;DHT22;2702;51.014;7.170;2022-10-16T15:36:33;19.50;99.90
5358;DHT22;2702;51.014;7.170;2022-10-16T15:39:05;19.50;99.90
5358;DHT22;2702;51.014;7.170;2022-10-16T15:41:31;19.40;99.90
5358;DHT22;2702;51.014;7.170;2022-10-16T15:43:57;19.40;99.90
5358;DHT22;2702;51.014;7.170;2022-10-16T15:46:24;19.40;99.90
5358;DHT22;2702;51.014;7.170;2022-10-16T15:48:51;19.30;99.90
5358;DHT22;2702;51.014;7.170;2022-10-16T15:51:18;19.20;99.90
5358;DHT22;2702;51.014;7.170;2022-10-16T15:53:44;19.20;99.90
5358;DHT22;2702;51.014;7.170;2022-10-16T15:56:13;19.20;99.90
5358;DHT22;2702;51.014;7.170;2022-10-16T15:58:39;19.10;99.90
5358;DHT22;2702;51.014;7.170;2022-10-16T16:01:05;19.00;99.90
5358;DHT22;2702;51.014;7.170;2022-10-16T16:03:32;19.00;99.90
5358;DHT22;2702;51.014;7.170;2022-10-16T16:06:07;19.00;99.90
5358;DHT22;2702;51.014;7.170;2022-10-16T16:08:34;19.00;99.90
5358;DHT22;2702;51.014;7.170;2022-10-16T16:11:05;18.90;99.90
5358;DHT22;2702;51.014;7.170;2022-10-16T16:13:32;18.90;99.90
5358;DHT22;2702;51.014;7.170;2022-10-16T16:15:58;18.80;99.90
5358;DHT22;2702;51.014;7.170;2022-10-16T16:18:24;18.80;99.90
5358;DHT22;2702;51.014;7.170;2022-10-16T16:20:51;18.80;99.90
5358;DHT22;2702;51.014;7.170;2022-10-16T16:23:17;18.60;99.90
5358;DHT22;2702;51.014;7.170;2022-10-16T16:25:45;18.60;99.90
5358;DHT22;2702;51.014;7.170;2022-10-16T16:28:11;18.50;99.90
5358;DHT22;2702;51.014;7.170;2022-10-16T16:30:40;18.50;99.90
5358;DHT22;2702;51.014;7.170;2022-10-16T16:33:06;18.40;99.90
5358;DHT22;2702;51.014;7.170;2022-10-16T16:35:32;18.30;99.90
5358;DHT22;2702;51.014;7.170;2022-10-16T16:37:58;18.30;99.90
5358;DHT22;2702;51.014;7.170;2022-10-16T16:40:24;18.20;99.90
5358;DHT22;2702;51.014;7.170;2022-10-16T16:42:50;18.00;99.90
5358;DHT22;2702;51.014;7.170;2022-10-16T16:45:15;18.00;99.90
5358;DHT22;2702;51.014;7.170;2022-10-16T16:47:41;17.90;99.90
5358;DHT22;2702;51.014;7.170;2022-10-16T16:50:07;17.90;99.90
5358;DHT22;2702;51.014;7.170;2022-10-16T16:52:34;17.80;99.90
5358;DHT22;2702;51.014;7.170;2022-10-16T16:55:01;17.80;99.90
5358;DHT22;2702;51.014;7.170;2022-10-16T16:57:27;17.70;99.90
5358;DHT22;2702;51.014;7.170;2022-10-16T16:59:53;17.70;99.90
5358;DHT22;2702;51.014;7.170;2022-10-16T17:02:19;17.60;99.90
5358;DHT22;2702;51.014;7.170;2022-10-16T17:04:45;17.60;99.90
5358;DHT22;2702;51.014;7.170;2022-10-16T17:07:11;17.60;99.90
5358;DHT22;2702;51.014;7.170;2022-10-16T17:09:37;17.60;99.90
5358;DHT22;2702;51.014;7.170;2022-10-16T17:12:03;17.50;99.90
5358;DHT22;2702;51.014;7.170;2022-10-16T17:14:28;17.50;99.90
5358;DHT22;2702;51.014;7.170;2022-10-16T17:16:55;17.40;99.90
5358;DHT22;2702;51.014;7.170;2022-10-16T17:19:21;17.40;99.90
5358;DHT22;2702;51.014;7.170;2022-10-16T17:21:51;17.40;99.90
5358;DHT22;2702;51.014;7.170;2022-10-16T17:24:17;17.30;99.90
5358;DHT22;2702;51.014;7.170;2022-10-16T17:26:44;17.20;99.90
5358;DHT22;2702;51.014;7.170;2022-10-16T17:29:14;17.20;99.90
5358;DHT22;2702;51.014;7.170;2022-10-16T17:31:40;17.20;99.90
5358;DHT22;2702;51.014;7.170;2022-10-16T17:34:08;17.30;99.90
5358;DHT22;2702;51.014;7.170;2022-10-16T17:36:38;17.30;99.90
5358;DHT22;2702;51.014;7.170;2022-10-16T17:39:11;17.30;99.90
5358;DHT22;2702;51.014;7.170;2022-10-16T17:41:37;17.30;99.90
5358;DHT22;2702;51.014;7.170;2022-10-16T17:44:05;17.30;99.90
5358;DHT22;2702;51.014;7.170;2022-10-16T17:46:31;17.30;99.90
5358;DHT22;2702;51.014;7.170;2022-10-16T17:48:58;17.30;99.90
5358;DHT22;2702;51.014;7.170;2022-10-16T17:51:27;17.30;99.90
5358;DHT22;2702;51.014;7.170;2022-10-16T17:53:56;17.30;99.90
5358;DHT22;2702;51.014;7.170;2022-10-16T17:56:24;17.30;99.90
5358;DHT22;2702;51.014;7.170;2022-10-16T17:58:52;17.30;99.90
5358;DHT22;2702;51.014;7.170;2022-10-16T18:01:21;17.30;99.90
5358;DHT22;2702;51.014;7.170;2022-10-16T18:03:56;17.40;99.90
5358;DHT22;2702;51.014;7.170;2022-10-16T18:06:23;17.40;99.90
5358;DHT22;2702;51.014;7.170;2022-10-16T18:08:50;17.40;99.90
5358;DHT22;2702;51.014;7.170;2022-10-16T18:11:17;17.30;99.90
5358;DHT22;2702;51.014;7.170;2022-10-16T18:13:43;17.30;99.90
5358;DHT22;2702;51.014;7.170;2022-10-16T18:16:11;17.30;99.90